createdAt,value
2023-05-05T00:01:02.675Z,8.91
2023-05-05T00:03:30.132Z,8.90
2023-05-05T00:05:57.773Z,8.88
2023-05-05T00:08:24.922Z,8.86
2023-05-05T00:10:53.289Z,8.81
2023-05-05T00:13:21.484Z,8.74
2023-05-05T00:15:50.533Z,8.73
2023-05-05T00:18:18.806Z,8.73
2023-05-05T00:20:49.297Z,8.71
2023-05-05T00:23:16.940Z,8.67
2023-05-05T00:25:44.090Z,8.65
2023-05-05T00:28:11.427Z,8.58
2023-05-05T00:30:40.107Z,8.52
2023-05-05T00:33:07.164Z,8.48
2023-05-05T00:35:34.814Z,8.48
2023-05-05T00:38:01.970Z,8.44
2023-05-05T00:40:28.918Z,8.43
2023-05-05T00:42:55.860Z,8.46
2023-05-05T00:45:23.012Z,8.50
2023-05-05T00:47:54.064Z,8.44
2023-05-05T00:50:25.379Z,8.31
2023-05-05T00:52:57.909Z,8.16
2023-05-05T00:55:25.105Z,8.07
2023-05-05T00:57:52.463Z,7.99
2023-05-05T01:00:19.408Z,7.88
2023-05-05T01:02:46.637Z,7.76
2023-05-05T01:05:16.342Z,7.63
2023-05-05T01:08:04.807Z,7.54
2023-05-05T01:10:49.102Z,7.46
2023-05-05T01:13:58.254Z,7.42
2023-05-05T01:16:31.158Z,7.39
2023-05-05T01:19:30.064Z,7.41
2023-05-05T01:22:00.936Z,7.50
2023-05-05T01:24:55.375Z,7.56
2023-05-05T01:28:10.862Z,7.65
2023-05-05T01:31:06.060Z,7.72
2023-05-05T01:33:42.040Z,7.77
2023-05-05T01:36:22.935Z,7.77
2023-05-05T01:38:58.321Z,7.78
2023-05-05T01:41:30.696Z,7.78
2023-05-05T01:44:03.211Z,7.76
2023-05-05T01:46:30.934Z,7.68
2023-05-05T01:48:59.196Z,7.66
2023-05-05T01:51:28.326Z,7.68
2023-05-05T01:53:59.475Z,7.69
2023-05-05T01:56:27.848Z,7.66
2023-05-05T01:58:56.137Z,7.69
2023-05-05T02:01:26.159Z,7.70
2023-05-05T02:03:57.071Z,7.73
2023-05-05T02:06:25.114Z,7.74
2023-05-05T02:08:54.559Z,7.76
2023-05-05T02:11:22.176Z,7.77
2023-05-05T02:13:51.307Z,7.76
2023-05-05T02:16:20.456Z,7.82
2023-05-05T02:18:48.316Z,7.84
2023-05-05T02:21:18.235Z,7.83
2023-05-05T02:23:52.208Z,7.79
2023-05-05T02:26:21.961Z,7.69
2023-05-05T02:28:57.531Z,7.59
2023-05-05T02:31:26.020Z,7.49
2023-05-05T02:33:56.589Z,7.44
2023-05-05T02:36:28.572Z,7.46
2023-05-05T02:39:01.557Z,7.44
2023-05-05T02:41:31.674Z,7.42
2023-05-05T02:44:00.662Z,7.37
2023-05-05T02:46:28.373Z,7.30
2023-05-05T02:48:55.673Z,7.24
2023-05-05T02:51:22.508Z,7.19
2023-05-05T02:53:49.351Z,7.15
2023-05-05T02:57:04.320Z,7.11
2023-05-05T02:59:47.747Z,7.04
2023-05-05T03:02:52.133Z,7.06
2023-05-05T03:05:23.630Z,7.06
2023-05-05T03:08:13.820Z,7.02
2023-05-05T03:10:48.269Z,7.01
2023-05-05T03:13:18.877Z,7.03
2023-05-05T03:15:51.928Z,7.07
2023-05-05T03:18:20.421Z,7.06
2023-05-05T03:20:48.629Z,7.05
2023-05-05T03:23:18.482Z,7.02
2023-05-05T03:25:47.158Z,6.98
2023-05-05T03:28:15.965Z,6.98
2023-05-05T03:30:43.358Z,6.91
2023-05-05T03:33:15.310Z,6.88
2023-05-05T03:35:42.437Z,6.89
2023-05-05T03:38:09.697Z,6.88
2023-05-05T03:40:44.174Z,6.87
2023-05-05T03:43:11.873Z,6.92
2023-05-05T03:45:39.049Z,6.98
2023-05-05T03:48:07.225Z,7.05
2023-05-05T03:50:34.334Z,7.09
2023-05-05T03:53:01.170Z,7.14
2023-05-05T03:55:27.924Z,7.18
2023-05-05T03:57:54.855Z,7.23
2023-05-05T04:00:22.220Z,7.25
2023-05-05T04:02:49.160Z,7.27
2023-05-05T04:05:16.407Z,7.20
2023-05-05T04:07:43.230Z,7.16
2023-05-05T04:10:10.617Z,7.12
2023-05-05T04:12:37.696Z,7.17
2023-05-05T04:15:05.506Z,7.20
2023-05-05T04:17:32.372Z,7.21
2023-05-05T04:19:59.299Z,7.22
2023-05-05T04:22:26.340Z,7.25
2023-05-05T04:24:53.170Z,7.31
2023-05-05T04:27:20.017Z,7.38
2023-05-05T04:29:46.844Z,7.44
2023-05-05T04:32:13.584Z,7.48
2023-05-05T04:34:40.533Z,7.52
2023-05-05T04:37:07.379Z,7.53
2023-05-05T04:39:34.536Z,7.49
2023-05-05T04:42:02.700Z,7.45
2023-05-05T04:44:29.657Z,7.44
2023-05-05T04:46:56.701Z,7.50
2023-05-05T04:49:23.539Z,7.56
2023-05-05T04:51:50.550Z,7.60
2023-05-05T04:54:17.416Z,7.68
2023-05-05T04:56:44.255Z,7.73
2023-05-05T04:59:11.295Z,7.77
2023-05-05T05:01:38.695Z,7.83
2023-05-05T05:04:06.091Z,7.93
2023-05-05T05:06:33.269Z,8.06
2023-05-05T05:09:00.982Z,8.17
2023-05-05T05:11:28.179Z,8.20
2023-05-05T05:13:55.296Z,8.30
2023-05-05T05:16:22.442Z,8.49
2023-05-05T05:18:49.531Z,8.74
2023-05-05T05:21:16.828Z,8.88
2023-05-05T05:23:43.886Z,8.97
2023-05-05T05:26:11.335Z,9.15
2023-05-05T05:28:38.189Z,9.33
2023-05-05T05:31:05.334Z,9.47
2023-05-05T05:33:32.373Z,9.45
2023-05-05T05:35:59.937Z,9.47
2023-05-05T05:38:27.130Z,9.53
2023-05-05T05:40:54.808Z,9.60
2023-05-05T05:43:21.937Z,9.61
2023-05-05T05:45:48.984Z,9.67
2023-05-05T05:48:16.092Z,9.81
2023-05-05T05:50:43.400Z,9.98
2023-05-05T05:53:10.411Z,10.21
2023-05-05T05:55:37.322Z,10.49
2023-05-05T05:58:04.338Z,10.67
2023-05-05T06:00:31.412Z,10.82
2023-05-05T06:02:58.674Z,11.02
2023-05-05T06:05:25.915Z,11.18
2023-05-05T06:07:53.233Z,11.38
2023-05-05T06:10:27.778Z,11.49
2023-05-05T06:12:55.855Z,11.72
2023-05-05T06:15:23.088Z,11.90
2023-05-05T06:17:50.359Z,12.12
2023-05-05T06:20:17.609Z,12.19
2023-05-05T06:22:44.817Z,12.17
2023-05-05T06:25:12.570Z,12.26
2023-05-05T06:27:39.626Z,12.43
2023-05-05T06:30:08.256Z,12.62
2023-05-05T06:32:35.486Z,12.77
2023-05-05T06:35:02.894Z,12.96
2023-05-05T06:37:29.922Z,13.18
2023-05-05T06:39:57.359Z,13.47
2023-05-05T06:42:24.363Z,13.65
2023-05-05T06:44:51.848Z,13.60
2023-05-05T06:47:18.775Z,13.60
2023-05-05T06:49:45.631Z,13.88
2023-05-05T06:52:13.447Z,14.16
2023-05-05T06:54:40.499Z,14.39
2023-05-05T06:57:07.542Z,14.45
2023-05-05T06:59:34.887Z,14.39
2023-05-05T07:02:01.775Z,14.31
2023-05-05T07:04:29.239Z,14.16
2023-05-05T07:06:56.276Z,14.07
2023-05-05T07:09:23.450Z,14.04
2023-05-05T07:11:50.984Z,14.20
2023-05-05T07:14:18.258Z,14.45
2023-05-05T07:16:45.593Z,14.43
2023-05-05T07:19:13.136Z,14.60
2023-05-05T07:21:40.332Z,14.92
2023-05-05T07:24:08.013Z,15.14
2023-05-05T07:26:35.861Z,14.96
2023-05-05T07:29:04.845Z,14.94
2023-05-05T07:31:32.378Z,15.11
2023-05-05T07:33:59.688Z,15.30
2023-05-05T07:36:28.171Z,15.63
2023-05-05T07:38:55.695Z,15.95
2023-05-05T07:41:23.777Z,16.23
2023-05-05T07:43:51.576Z,16.42
2023-05-05T07:46:19.310Z,16.75
2023-05-05T07:48:46.584Z,16.92
2023-05-05T07:51:13.924Z,17.06
2023-05-05T07:53:42.163Z,16.95
2023-05-05T07:56:09.608Z,17.07
2023-05-05T07:58:36.732Z,17.40
2023-05-05T08:01:06.984Z,17.74
2023-05-05T08:03:34.470Z,17.93
2023-05-05T08:06:09.004Z,18.06
2023-05-05T08:08:36.748Z,18.33
2023-05-05T08:11:04.177Z,18.58
2023-05-05T08:13:31.530Z,18.92
2023-05-05T08:15:59.419Z,19.01
2023-05-05T08:18:27.102Z,19.13
2023-05-05T08:20:55.046Z,19.23
2023-05-05T08:23:22.294Z,19.48
2023-05-05T08:25:50.237Z,19.80
2023-05-05T08:28:17.370Z,20.02
2023-05-05T08:30:45.371Z,19.86
2023-05-05T08:33:12.592Z,19.67
2023-05-05T08:35:39.542Z,19.50
2023-05-05T08:38:06.900Z,19.61
2023-05-05T08:40:35.361Z,19.88
2023-05-05T08:43:02.900Z,20.17
2023-05-05T08:45:30.722Z,20.27
2023-05-05T08:48:00.806Z,20.48
2023-05-05T08:50:30.008Z,20.63
2023-05-05T08:53:05.963Z,20.70
2023-05-05T08:55:35.661Z,20.82
2023-05-05T08:58:06.492Z,21.12
2023-05-05T09:00:35.074Z,21.44
2023-05-05T09:03:03.262Z,21.59
2023-05-05T09:05:30.807Z,21.69
2023-05-05T09:07:58.827Z,21.75
2023-05-05T09:10:28.051Z,21.81
2023-05-05T09:12:55.063Z,21.98
2023-05-05T09:15:22.205Z,22.04
2023-05-05T09:17:49.272Z,22.31
2023-05-05T09:20:16.610Z,22.64
2023-05-05T09:22:45.852Z,22.85
2023-05-05T09:25:15.484Z,22.71
2023-05-05T09:27:48.565Z,22.90
2023-05-05T09:30:18.268Z,23.33
2023-05-05T09:32:48.334Z,23.81
2023-05-05T09:35:16.534Z,24.13
2023-05-05T09:37:44.465Z,23.93
2023-05-05T09:40:14.403Z,23.68
2023-05-05T09:42:42.579Z,23.78
2023-05-05T09:45:19.082Z,23.73
2023-05-05T09:47:47.880Z,23.71
2023-05-05T09:50:19.154Z,23.50
2023-05-05T09:53:00.946Z,23.68
2023-05-05T09:55:29.186Z,23.53
2023-05-05T09:57:56.678Z,23.65
2023-05-05T10:00:50.350Z,23.74
2023-05-05T10:03:17.680Z,23.71
2023-05-05T10:05:49.468Z,23.78
2023-05-05T10:08:17.647Z,23.79
2023-05-05T10:10:58.903Z,23.91
2023-05-05T10:13:26.819Z,24.14
2023-05-05T10:15:58.148Z,24.29
2023-05-05T10:18:28.192Z,24.58
2023-05-05T10:20:59.941Z,24.31
2023-05-05T10:23:49.438Z,23.90
2023-05-05T10:26:19.747Z,23.91
2023-05-05T10:28:56.681Z,24.54
2023-05-05T10:31:40.833Z,25.26
2023-05-05T10:34:21.516Z,25.55
2023-05-05T10:36:55.502Z,25.70
2023-05-05T10:39:30.089Z,25.52
2023-05-05T10:42:11.322Z,25.55
2023-05-05T10:44:54.984Z,25.77
2023-05-05T10:47:36.408Z,26.15
2023-05-05T10:50:35.083Z,26.55
2023-05-05T10:53:39.435Z,26.76
2023-05-05T10:56:22.409Z,26.68
2023-05-05T10:58:59.194Z,26.59
2023-05-05T11:01:35.249Z,26.81
2023-05-05T11:04:22.957Z,26.85
2023-05-05T11:07:09.643Z,26.40
2023-05-05T11:10:04.992Z,26.28
2023-05-05T11:12:36.071Z,26.49
2023-05-05T11:15:32.075Z,26.54
2023-05-05T11:18:06.722Z,27.01
2023-05-05T11:20:40.117Z,27.45
2023-05-05T11:23:07.350Z,27.52
2023-05-05T11:25:34.807Z,27.94
2023-05-05T11:28:09.452Z,28.13
2023-05-05T11:30:58.107Z,27.55
2023-05-05T11:33:28.646Z,27.71
2023-05-05T11:36:07.355Z,27.66
2023-05-05T11:39:05.458Z,27.95
2023-05-05T11:41:32.974Z,28.40
2023-05-05T11:44:13.656Z,28.27
2023-05-05T11:47:06.932Z,28.28
2023-05-05T11:49:40.375Z,28.55
2023-05-05T11:52:13.020Z,28.87
2023-05-05T11:54:49.390Z,29.28
2023-05-05T11:57:21.900Z,29.38
2023-05-05T12:00:03.744Z,29.60
2023-05-05T12:02:31.934Z,29.80
2023-05-05T12:05:00.420Z,29.52
2023-05-05T12:07:31.281Z,29.77
2023-05-05T12:09:58.568Z,29.92
2023-05-05T12:12:36.656Z,30.01
2023-05-05T12:15:05.020Z,30.08
2023-05-05T12:17:41.228Z,30.38
2023-05-05T12:20:10.114Z,30.28
2023-05-05T12:22:37.727Z,30.17
2023-05-05T12:25:07.971Z,30.24
2023-05-05T12:27:50.785Z,30.29
2023-05-05T12:30:19.362Z,30.69
2023-05-05T12:32:46.788Z,30.75
2023-05-05T12:35:14.662Z,30.62
2023-05-05T12:37:43.614Z,30.57
2023-05-05T12:40:44.082Z,29.83
2023-05-05T12:43:28.614Z,29.39
2023-05-05T12:46:11.373Z,28.79
2023-05-05T12:48:40.760Z,28.70
2023-05-05T12:51:20.781Z,28.88
2023-05-05T12:53:49.579Z,28.43
2023-05-05T12:56:54.710Z,27.74
2023-05-05T12:59:32.725Z,27.90
2023-05-05T13:02:01.938Z,28.63
2023-05-05T13:04:29.380Z,28.93
2023-05-05T13:07:11.946Z,29.42
2023-05-05T13:09:39.289Z,30.10
2023-05-05T13:12:08.778Z,30.54
2023-05-05T13:14:36.841Z,30.79
2023-05-05T13:17:04.266Z,31.13
2023-05-05T13:19:32.457Z,31.45
2023-05-05T13:21:59.411Z,31.67
2023-05-05T13:24:42.388Z,31.41
2023-05-05T13:27:14.336Z,30.88
2023-05-05T13:29:42.044Z,30.11
2023-05-05T13:32:09.131Z,29.60
2023-05-05T13:34:36.438Z,29.97
2023-05-05T13:37:03.476Z,30.35
2023-05-05T13:39:30.506Z,30.63
2023-05-05T13:41:57.861Z,30.07
2023-05-05T13:44:25.056Z,29.58
2023-05-05T13:46:51.996Z,29.62
2023-05-05T13:49:19.028Z,29.44
2023-05-05T13:51:47.400Z,28.98
2023-05-05T13:54:14.487Z,28.55
2023-05-05T13:56:41.587Z,28.31
2023-05-05T13:59:08.532Z,28.04
2023-05-05T14:01:35.640Z,27.59
2023-05-05T14:04:05.170Z,27.20
2023-05-05T14:06:33.228Z,26.46
2023-05-05T14:09:00.220Z,25.82
2023-05-05T14:11:27.242Z,25.47
2023-05-05T14:13:54.583Z,24.84
2023-05-05T14:16:22.169Z,24.34
2023-05-05T14:18:49.321Z,24.02
2023-05-05T14:21:16.171Z,23.66
2023-05-05T14:23:43.372Z,23.40
2023-05-05T14:26:10.579Z,23.21
2023-05-05T14:28:37.848Z,23.18
2023-05-05T14:31:05.520Z,23.12
2023-05-05T14:33:32.984Z,22.94
2023-05-05T14:36:00.321Z,22.80
2023-05-05T14:38:27.825Z,22.77
2023-05-05T14:40:55.160Z,22.58
2023-05-05T14:43:22.593Z,22.33
2023-05-05T14:45:49.696Z,22.17
2023-05-05T14:48:17.018Z,22.08
2023-05-05T14:50:46.976Z,22.02
2023-05-05T14:53:14.380Z,21.90
2023-05-05T14:55:41.322Z,21.80
2023-05-05T14:58:08.163Z,21.73
2023-05-05T15:00:35.459Z,21.61
2023-05-05T15:03:02.556Z,21.56
2023-05-05T15:05:29.761Z,21.55
2023-05-05T15:07:57.118Z,21.53
2023-05-05T15:10:24.392Z,21.53
2023-05-05T15:12:51.533Z,21.50
2023-05-05T15:15:18.619Z,21.42
2023-05-05T15:17:46.029Z,21.37
2023-05-05T15:20:12.898Z,21.34
2023-05-05T15:22:40.090Z,21.28
2023-05-05T15:25:11.145Z,21.17
2023-05-05T15:27:39.852Z,21.01
2023-05-05T15:30:07.988Z,20.96
2023-05-05T15:32:35.045Z,20.90
2023-05-05T15:35:02.247Z,20.80
2023-05-05T15:37:29.278Z,20.67
2023-05-05T15:39:57.498Z,20.67
2023-05-05T15:42:25.187Z,20.67
2023-05-05T15:44:52.773Z,20.71
2023-05-05T15:47:19.916Z,20.74
2023-05-05T15:49:47.759Z,20.72
2023-05-05T15:52:14.951Z,20.63
2023-05-05T15:54:42.010Z,20.59
2023-05-05T15:57:08.922Z,20.55
2023-05-05T15:59:36.230Z,20.52
2023-05-05T16:02:03.314Z,20.41
2023-05-05T16:04:31.035Z,20.31
2023-05-05T16:06:58.590Z,20.28
2023-05-05T16:09:25.721Z,20.23
2023-05-05T16:11:56.014Z,20.17
2023-05-05T16:14:22.950Z,20.11
2023-05-05T16:16:50.019Z,20.05
2023-05-05T16:19:18.469Z,20.00
2023-05-05T16:21:45.889Z,19.98
2023-05-05T16:24:17.092Z,19.96
2023-05-05T16:26:45.083Z,19.88
2023-05-05T16:29:13.111Z,19.77
2023-05-05T16:31:40.894Z,19.74
2023-05-05T16:34:08.269Z,19.75
2023-05-05T16:36:35.406Z,19.72
2023-05-05T16:39:02.854Z,19.72
2023-05-05T16:41:30.076Z,19.70
2023-05-05T16:43:57.871Z,19.63
2023-05-05T16:46:25.215Z,19.58
2023-05-05T16:48:52.240Z,19.52
2023-05-05T16:51:19.636Z,19.44
2023-05-05T16:53:48.354Z,19.40
2023-05-05T16:56:16.203Z,19.32
2023-05-05T16:58:43.181Z,19.25
2023-05-05T17:01:10.502Z,19.20
2023-05-05T17:03:38.510Z,19.17
2023-05-05T17:06:06.704Z,19.11
2023-05-05T17:08:33.890Z,19.05
2023-05-05T17:11:00.920Z,19.01
2023-05-05T17:13:27.902Z,18.95
2023-05-05T17:15:54.793Z,18.89
2023-05-05T17:18:23.507Z,18.81
2023-05-05T17:20:50.679Z,18.72
2023-05-05T17:23:17.886Z,18.64
2023-05-05T17:25:44.998Z,18.59
2023-05-05T17:28:12.284Z,18.51
2023-05-05T17:30:39.317Z,18.40
2023-05-05T17:33:06.446Z,18.35
2023-05-05T17:35:33.640Z,18.28
2023-05-05T17:38:00.720Z,18.22
2023-05-05T17:40:27.682Z,18.13
2023-05-05T17:42:54.695Z,18.04
2023-05-05T17:45:21.864Z,17.94
2023-05-05T17:47:48.818Z,17.86
2023-05-05T17:50:16.235Z,17.81
2023-05-05T17:52:45.852Z,17.73
2023-05-05T17:55:13.349Z,17.65
2023-05-05T17:57:40.365Z,17.57
2023-05-05T18:00:09.458Z,17.49
2023-05-05T18:02:39.811Z,17.41
2023-05-05T18:05:07.809Z,17.35
2023-05-05T18:07:35.250Z,17.24
2023-05-05T18:10:02.214Z,17.14
2023-05-05T18:12:29.324Z,17.05
2023-05-05T18:14:56.685Z,16.96
2023-05-05T18:17:23.676Z,16.85
2023-05-05T18:19:50.701Z,16.76
2023-05-05T18:22:18.130Z,16.69
2023-05-05T18:24:46.954Z,16.59
2023-05-05T18:27:13.908Z,16.51
2023-05-05T18:29:41.163Z,16.44
2023-05-05T18:32:08.507Z,16.37
2023-05-05T18:34:35.357Z,16.30
2023-05-05T18:37:02.442Z,16.23
2023-05-05T18:39:29.542Z,16.18
2023-05-05T18:41:56.612Z,16.15
2023-05-05T18:44:23.964Z,16.09
2023-05-05T18:46:51.941Z,16.03
2023-05-05T18:49:19.086Z,15.99
2023-05-05T18:51:46.208Z,15.92
2023-05-05T18:54:12.939Z,15.84
2023-05-05T18:56:39.879Z,15.75
2023-05-05T18:59:07.140Z,15.67
2023-05-05T19:01:34.278Z,15.59
2023-05-05T19:04:01.555Z,15.52
2023-05-05T19:06:29.136Z,15.46
2023-05-05T19:08:57.020Z,15.39
2023-05-05T19:11:24.544Z,15.31
2023-05-05T19:13:51.660Z,15.26
2023-05-05T19:16:18.912Z,15.21
2023-05-05T19:18:46.393Z,15.18
2023-05-05T19:21:13.609Z,15.15
2023-05-05T19:23:41.640Z,15.10
2023-05-05T19:26:09.086Z,15.04
2023-05-05T19:28:36.439Z,14.99
2023-05-05T19:31:03.882Z,14.94
2023-05-05T19:33:31.294Z,14.88
2023-05-05T19:35:58.222Z,14.86
2023-05-05T19:38:25.282Z,14.84
2023-05-05T19:40:52.446Z,14.78
2023-05-05T19:43:19.262Z,14.74
2023-05-05T19:45:46.187Z,14.69
2023-05-05T19:48:13.298Z,14.65
2023-05-05T19:50:40.604Z,14.61
2023-05-05T19:53:07.646Z,14.59
2023-05-05T19:55:34.504Z,14.56
2023-05-05T19:58:01.695Z,14.52
2023-05-05T20:00:28.611Z,14.49
2023-05-05T20:02:55.845Z,14.43
2023-05-05T20:05:22.892Z,14.37
2023-05-05T20:07:50.509Z,14.26
2023-05-05T20:10:18.335Z,14.18
2023-05-05T20:12:49.243Z,14.12
2023-05-05T20:15:20.911Z,14.06
2023-05-05T20:17:48.941Z,14.00
2023-05-05T20:20:19.018Z,13.96
2023-05-05T20:22:47.268Z,13.91
2023-05-05T20:25:16.645Z,13.87
2023-05-05T20:27:45.550Z,13.82
2023-05-05T20:30:13.976Z,13.77
2023-05-05T20:32:41.733Z,13.72
2023-05-05T20:35:09.508Z,13.65
2023-05-05T20:37:36.396Z,13.63
2023-05-05T20:40:04.166Z,13.60
2023-05-05T20:42:31.238Z,13.54
2023-05-05T20:44:58.613Z,13.51
2023-05-05T20:47:26.039Z,13.45
2023-05-05T20:49:53.474Z,13.42
2023-05-05T20:52:21.038Z,13.40
2023-05-05T20:54:48.256Z,13.33
2023-05-05T20:57:15.263Z,13.25
2023-05-05T20:59:42.937Z,13.14
2023-05-05T21:02:10.098Z,13.06
2023-05-05T21:04:37.068Z,13.01
2023-05-05T21:07:04.088Z,12.99
2023-05-05T21:09:32.157Z,12.98
2023-05-05T21:11:59.110Z,12.94
2023-05-05T21:14:26.938Z,12.88
2023-05-05T21:16:54.708Z,12.83
2023-05-05T21:19:21.965Z,12.79
2023-05-05T21:21:50.223Z,12.77
2023-05-05T21:24:17.230Z,12.74
2023-05-05T21:26:44.870Z,12.69
2023-05-05T21:29:12.537Z,12.64
2023-05-05T21:31:39.546Z,12.62
2023-05-05T21:34:06.933Z,12.59
2023-05-05T21:36:34.617Z,12.54
2023-05-05T21:39:01.980Z,12.50
2023-05-05T21:41:28.969Z,12.48
2023-05-05T21:43:56.701Z,12.46
2023-05-05T21:46:23.931Z,12.41
2023-05-05T21:48:51.050Z,12.32
2023-05-05T21:51:18.292Z,12.27
2023-05-05T21:53:45.540Z,12.25
2023-05-05T21:56:12.854Z,12.23
2023-05-05T21:58:41.365Z,12.18
2023-05-05T22:01:08.482Z,12.14
2023-05-05T22:03:36.729Z,12.13
2023-05-05T22:06:04.205Z,12.10
2023-05-05T22:08:31.212Z,12.06
2023-05-05T22:10:58.131Z,12.02
2023-05-05T22:13:25.380Z,12.03
2023-05-05T22:15:52.450Z,12.01
2023-05-05T22:18:19.373Z,12.01
2023-05-05T22:20:47.189Z,12.02
2023-05-05T22:23:14.289Z,12.00
2023-05-05T22:25:41.849Z,11.99
2023-05-05T22:28:08.778Z,11.97
2023-05-05T22:30:36.133Z,11.97
2023-05-05T22:33:03.164Z,11.94
2023-05-05T22:35:30.227Z,11.92
2023-05-05T22:37:57.371Z,11.90
2023-05-05T22:40:24.574Z,11.87
2023-05-05T22:42:51.571Z,11.83
2023-05-05T22:45:18.637Z,11.80
2023-05-05T22:47:45.925Z,11.77
2023-05-05T22:50:12.958Z,11.73
2023-05-05T22:52:39.917Z,11.69
2023-05-05T22:55:07.790Z,11.62
2023-05-05T22:57:36.608Z,11.59
2023-05-05T23:00:05.665Z,11.55
2023-05-05T23:02:32.907Z,11.53
2023-05-05T23:04:59.888Z,11.52
2023-05-05T23:07:26.934Z,11.49
2023-05-05T23:09:54.392Z,11.47
2023-05-05T23:12:21.429Z,11.44
2023-05-05T23:14:50.193Z,11.41
2023-05-05T23:17:17.288Z,11.38
2023-05-05T23:19:48.351Z,11.38
2023-05-05T23:22:15.955Z,11.38
2023-05-05T23:24:42.957Z,11.38
2023-05-05T23:27:10.315Z,11.34
2023-05-05T23:29:37.214Z,11.33
2023-05-05T23:32:04.255Z,11.30
2023-05-05T23:34:31.194Z,11.28
2023-05-05T23:36:58.052Z,11.26
2023-05-05T23:39:24.882Z,11.22
2023-05-05T23:41:51.850Z,11.18
2023-05-05T23:44:18.773Z,11.14
2023-05-05T23:46:45.811Z,11.13
2023-05-05T23:49:12.642Z,11.13
2023-05-05T23:51:39.730Z,11.13
2023-05-05T23:54:06.964Z,11.09
2023-05-05T23:56:34.088Z,11.07
2023-05-05T23:59:01.159Z,11.02
